createdAt,value
2023-03-17T00:01:54.404Z,8.37
2023-03-17T00:04:24.242Z,8.27
2023-03-17T00:06:51.770Z,8.27
2023-03-17T00:09:19.887Z,8.31
2023-03-17T00:11:47.270Z,8.31
2023-03-17T00:14:14.598Z,8.35
2023-03-17T00:16:43.767Z,8.40
2023-03-17T00:19:16.567Z,8.38
2023-03-17T00:21:43.740Z,8.34
2023-03-17T00:24:15.883Z,8.49
2023-03-17T00:26:43.286Z,8.35
2023-03-17T00:29:10.251Z,8.45
2023-03-17T00:31:38.210Z,8.47
2023-03-17T00:34:05.851Z,8.51
2023-03-17T00:36:33.629Z,8.29
2023-03-17T00:39:00.687Z,8.32
2023-03-17T00:41:27.338Z,8.49
2023-03-17T00:43:56.038Z,8.40
2023-03-17T00:46:28.876Z,8.36
2023-03-17T00:48:55.598Z,8.42
2023-03-17T00:51:23.320Z,8.43
2023-03-17T00:53:50.814Z,8.51
2023-03-17T00:56:19.746Z,8.41
2023-03-17T00:58:50.414Z,8.53
2023-03-17T01:01:18.675Z,8.40
2023-03-17T01:03:45.842Z,8.33
2023-03-17T01:06:16.226Z,8.28
2023-03-17T01:08:44.782Z,8.59
2023-03-17T01:11:19.556Z,8.67
2023-03-17T01:13:48.694Z,8.60
2023-03-17T01:16:15.662Z,8.91
2023-03-17T01:18:42.686Z,8.69
2023-03-17T01:21:09.456Z,8.78
2023-03-17T01:23:36.538Z,8.92
2023-03-17T01:26:03.084Z,8.72
2023-03-17T01:28:32.608Z,8.68
2023-03-17T01:30:59.091Z,8.68
2023-03-17T01:33:25.674Z,8.50
2023-03-17T01:35:52.407Z,8.43
2023-03-17T01:38:19.065Z,8.32
2023-03-17T01:40:49.662Z,8.50
2023-03-17T01:43:21.426Z,8.57
2023-03-17T01:46:15.229Z,8.65
2023-03-17T01:49:09.685Z,8.68
2023-03-17T01:52:02.039Z,8.51
2023-03-17T01:54:40.172Z,8.50
2023-03-17T01:57:16.556Z,8.51
2023-03-17T02:00:13.401Z,8.57
2023-03-17T02:02:46.517Z,8.64
2023-03-17T02:05:17.021Z,8.59
2023-03-17T02:07:45.054Z,8.64
2023-03-17T02:10:14.021Z,8.65
2023-03-17T02:12:44.874Z,8.48
2023-03-17T02:15:12.050Z,8.43
2023-03-17T02:17:38.538Z,8.41
2023-03-17T02:20:17.184Z,8.39
2023-03-17T02:22:48.468Z,8.26
2023-03-17T02:25:20.015Z,8.28
2023-03-17T02:27:51.228Z,8.47
2023-03-17T02:30:20.570Z,8.26
2023-03-17T02:32:47.701Z,8.33
2023-03-17T02:35:15.473Z,8.25
2023-03-17T02:37:44.071Z,8.23
2023-03-17T02:40:14.106Z,8.17
2023-03-17T02:42:41.302Z,7.88
2023-03-17T02:45:11.536Z,7.95
2023-03-17T02:47:38.397Z,7.90
2023-03-17T02:50:06.171Z,7.88
2023-03-17T02:52:36.734Z,7.80
2023-03-17T02:55:03.683Z,7.80
2023-03-17T02:57:30.084Z,7.72
2023-03-17T02:59:57.228Z,7.62
2023-03-17T03:02:23.676Z,7.70
2023-03-17T03:04:50.369Z,7.62
2023-03-17T03:07:17.135Z,7.59
2023-03-17T03:09:43.683Z,7.65
2023-03-17T03:12:11.132Z,7.45
2023-03-17T03:14:37.693Z,7.46
2023-03-17T03:17:07.325Z,7.37
2023-03-17T03:19:33.960Z,7.47
2023-03-17T03:22:00.824Z,7.61
2023-03-17T03:24:27.869Z,7.68
2023-03-17T03:26:54.226Z,7.62
2023-03-17T03:29:21.066Z,7.37
2023-03-17T03:31:48.655Z,7.30
2023-03-17T03:34:15.494Z,7.39
2023-03-17T03:36:42.272Z,7.37
2023-03-17T03:39:08.796Z,7.49
2023-03-17T03:41:35.530Z,7.41
2023-03-17T03:44:04.438Z,7.35
2023-03-17T03:46:31.268Z,7.35
2023-03-17T03:48:57.785Z,7.31
2023-03-17T03:51:24.220Z,7.23
2023-03-17T03:53:50.652Z,7.16
2023-03-17T03:56:17.093Z,7.23
2023-03-17T03:58:43.809Z,7.10
2023-03-17T04:01:10.563Z,6.99
2023-03-17T04:03:42.835Z,6.95
2023-03-17T04:06:11.847Z,6.88
2023-03-17T04:08:38.307Z,6.96
2023-03-17T04:11:07.506Z,7.03
2023-03-17T04:14:33.154Z,6.92
2023-03-17T04:17:02.237Z,6.99
2023-03-17T04:19:28.763Z,7.02
2023-03-17T04:21:55.333Z,6.84
2023-03-17T04:24:21.687Z,6.81
2023-03-17T04:27:32.883Z,6.79
2023-03-17T04:30:01.743Z,6.68
2023-03-17T04:32:28.141Z,6.73
2023-03-17T04:34:54.629Z,6.67
2023-03-17T04:37:21.200Z,6.57
2023-03-17T04:39:47.596Z,6.64
2023-03-17T04:42:16.552Z,6.71
2023-03-17T04:44:43.561Z,6.74
2023-03-17T04:47:12.683Z,6.56
2023-03-17T04:49:39.286Z,6.49
2023-03-17T04:52:06.682Z,6.48
2023-03-17T04:54:33.462Z,6.50
2023-03-17T04:56:59.873Z,6.55
2023-03-17T04:59:26.821Z,6.52
2023-03-17T05:01:55.961Z,6.53
2023-03-17T05:04:31.089Z,6.49
2023-03-17T05:06:58.765Z,6.41
2023-03-17T05:09:27.135Z,6.42
2023-03-17T05:11:53.549Z,6.23
2023-03-17T05:14:20.784Z,6.13
2023-03-17T05:16:48.495Z,6.18
2023-03-17T05:19:18.956Z,6.17
2023-03-17T05:21:45.431Z,6.10
2023-03-17T05:24:14.205Z,6.07
2023-03-17T05:26:43.201Z,6.17
2023-03-17T05:29:09.863Z,6.00
2023-03-17T05:31:36.936Z,5.84
2023-03-17T05:34:04.062Z,5.99
2023-03-17T05:36:30.523Z,5.88
2023-03-17T05:38:56.994Z,5.90
2023-03-17T05:41:23.583Z,5.83
2023-03-17T05:43:49.989Z,5.68
2023-03-17T05:46:17.997Z,5.88
2023-03-17T05:48:46.984Z,5.95
2023-03-17T05:51:13.381Z,5.55
2023-03-17T05:53:39.961Z,5.50
2023-03-17T05:56:09.170Z,5.67
2023-03-17T05:58:35.672Z,5.57
2023-03-17T06:01:02.187Z,5.67
2023-03-17T06:03:28.644Z,5.36
2023-03-17T06:05:55.297Z,5.26
2023-03-17T06:08:21.786Z,5.26
2023-03-17T06:10:48.533Z,5.34
2023-03-17T06:13:15.297Z,5.53
2023-03-17T06:15:43.027Z,5.60
2023-03-17T06:18:09.692Z,5.24
2023-03-17T06:20:36.744Z,5.27
2023-03-17T06:23:05.599Z,4.95
2023-03-17T06:25:34.679Z,5.01
2023-03-17T06:28:03.538Z,5.24
2023-03-17T06:30:34.690Z,5.38
2023-03-17T06:33:02.264Z,5.41
2023-03-17T06:35:29.886Z,5.42
2023-03-17T06:37:56.993Z,5.66
2023-03-17T06:40:23.708Z,5.91
2023-03-17T06:42:50.209Z,6.17
2023-03-17T06:45:17.314Z,6.18
2023-03-17T06:47:46.569Z,6.20
2023-03-17T06:50:13.445Z,6.33
2023-03-17T06:52:40.791Z,6.43
2023-03-17T06:55:08.492Z,6.64
2023-03-17T06:57:35.760Z,6.76
2023-03-17T07:00:06.252Z,6.69
2023-03-17T07:02:35.933Z,6.79
2023-03-17T07:05:04.477Z,7.01
2023-03-17T07:07:31.583Z,7.04
2023-03-17T07:09:58.252Z,6.95
2023-03-17T07:12:27.171Z,7.11
2023-03-17T07:14:54.224Z,7.14
2023-03-17T07:17:20.645Z,7.12
2023-03-17T07:19:47.116Z,7.08
2023-03-17T07:22:16.609Z,7.19
2023-03-17T07:24:47.002Z,7.50
2023-03-17T07:27:14.406Z,7.69
2023-03-17T07:29:41.449Z,7.61
2023-03-17T07:32:09.340Z,7.85
2023-03-17T07:34:36.519Z,7.73
2023-03-17T07:37:03.308Z,7.75
2023-03-17T07:39:29.799Z,7.95
2023-03-17T07:41:56.275Z,7.91
2023-03-17T07:44:25.934Z,8.07
2023-03-17T07:46:52.377Z,8.61
2023-03-17T07:49:34.084Z,8.91
2023-03-17T07:52:05.049Z,9.40
2023-03-17T07:54:32.129Z,9.48
2023-03-17T07:57:06.313Z,9.38
2023-03-17T07:59:34.567Z,10.09
2023-03-17T08:02:01.465Z,10.39
2023-03-17T08:04:30.661Z,10.37
2023-03-17T08:06:57.579Z,10.89
2023-03-17T08:09:24.336Z,10.79
2023-03-17T08:11:51.034Z,11.11
2023-03-17T08:14:17.555Z,10.78
2023-03-17T08:16:46.564Z,11.17
2023-03-17T08:19:13.111Z,11.29
2023-03-17T08:21:39.761Z,11.63
2023-03-17T08:24:06.580Z,11.61
2023-03-17T08:26:33.498Z,11.49
2023-03-17T08:28:59.985Z,11.63
2023-03-17T08:31:26.605Z,11.51
2023-03-17T08:33:54.625Z,11.12
2023-03-17T08:36:24.085Z,11.12
2023-03-17T08:38:53.451Z,11.05
2023-03-17T08:41:23.716Z,10.93
2023-03-17T08:43:53.163Z,10.87
2023-03-17T08:46:19.581Z,10.97
2023-03-17T08:48:51.000Z,11.03
2023-03-17T08:51:20.827Z,11.45
2023-03-17T08:53:51.289Z,11.70
2023-03-17T08:56:17.984Z,11.92
2023-03-17T08:58:47.722Z,11.96
2023-03-17T09:01:15.276Z,12.24
2023-03-17T09:03:42.990Z,12.43
2023-03-17T09:06:11.608Z,12.42
2023-03-17T09:08:39.877Z,12.71
2023-03-17T09:11:07.601Z,12.59
2023-03-17T09:13:34.850Z,12.41
2023-03-17T09:16:01.460Z,12.43
2023-03-17T09:18:31.420Z,12.51
2023-03-17T09:21:00.342Z,12.61
2023-03-17T09:23:26.748Z,12.61
2023-03-17T09:25:58.770Z,13.06
2023-03-17T09:28:27.496Z,13.33
2023-03-17T09:30:59.223Z,12.95
2023-03-17T09:33:25.948Z,13.09
2023-03-17T09:35:52.984Z,13.16
2023-03-17T09:38:19.574Z,13.59
2023-03-17T09:41:30.075Z,13.71
2023-03-17T09:44:15.756Z,13.55
2023-03-17T09:47:12.315Z,13.44
2023-03-17T09:49:46.039Z,13.65
2023-03-17T09:52:18.926Z,14.02
2023-03-17T09:54:46.609Z,14.03
2023-03-17T09:57:22.068Z,14.14
2023-03-17T10:00:01.336Z,14.06
2023-03-17T10:02:31.562Z,14.46
2023-03-17T10:04:59.013Z,14.37
2023-03-17T10:07:38.996Z,14.75
2023-03-17T10:10:15.001Z,14.56
2023-03-17T10:12:56.611Z,14.52
2023-03-17T10:16:00.020Z,14.73
2023-03-17T10:18:32.851Z,14.84
2023-03-17T10:21:03.818Z,14.82
2023-03-17T10:23:33.709Z,14.54
2023-03-17T10:26:18.560Z,14.81
2023-03-17T10:28:45.750Z,15.06
2023-03-17T10:31:16.759Z,15.05
2023-03-17T10:33:46.665Z,15.03
2023-03-17T10:36:19.147Z,14.88
2023-03-17T10:38:54.476Z,14.95
2023-03-17T10:41:23.472Z,14.99
2023-03-17T10:43:53.647Z,15.26
2023-03-17T10:46:26.325Z,15.45
2023-03-17T10:49:16.543Z,15.44
2023-03-17T10:51:46.511Z,15.69
2023-03-17T10:54:23.720Z,15.56
2023-03-17T10:57:01.672Z,15.65
2023-03-17T10:59:41.123Z,15.65
2023-03-17T11:02:35.976Z,15.54
2023-03-17T11:05:22.278Z,15.75
2023-03-17T11:07:49.172Z,16.26
2023-03-17T11:10:19.161Z,16.40
2023-03-17T11:12:50.051Z,16.52
2023-03-17T11:15:17.993Z,16.45
2023-03-17T11:17:54.719Z,16.56
2023-03-17T11:20:52.776Z,16.69
2023-03-17T11:23:22.327Z,16.86
2023-03-17T11:25:58.167Z,16.66
2023-03-17T11:28:30.891Z,16.65
2023-03-17T11:31:08.143Z,16.64
2023-03-17T11:34:00.010Z,16.81
2023-03-17T11:36:43.331Z,16.98
2023-03-17T11:39:33.135Z,17.11
2023-03-17T11:42:21.467Z,17.23
2023-03-17T11:44:50.937Z,17.22
2023-03-17T11:47:41.852Z,17.36
2023-03-17T11:50:08.619Z,17.26
2023-03-17T11:53:03.115Z,17.30
2023-03-17T11:55:47.000Z,17.37
2023-03-17T11:58:27.027Z,17.35
2023-03-17T12:01:01.339Z,17.06
2023-03-17T12:03:38.814Z,17.13
2023-03-17T12:06:15.789Z,17.21
2023-03-17T12:08:48.944Z,17.00
2023-03-17T12:11:23.652Z,17.15
2023-03-17T12:13:56.711Z,17.36
2023-03-17T12:16:33.131Z,17.38
2023-03-17T12:19:21.402Z,17.46
2023-03-17T12:21:54.182Z,17.32
2023-03-17T12:24:26.014Z,17.41
2023-03-17T12:27:02.597Z,17.46
2023-03-17T12:29:49.808Z,17.41
2023-03-17T12:32:20.191Z,17.62
2023-03-17T12:34:52.814Z,17.49
2023-03-17T12:37:19.859Z,17.60
2023-03-17T12:39:55.577Z,17.43
2023-03-17T12:42:53.525Z,17.66
2023-03-17T12:45:41.366Z,17.51
2023-03-17T12:48:26.253Z,17.68
2023-03-17T12:51:06.489Z,17.70
2023-03-17T12:53:42.396Z,17.61
2023-03-17T12:56:20.950Z,17.60
2023-03-17T12:58:50.543Z,17.55
2023-03-17T13:01:33.815Z,17.71
2023-03-17T13:04:21.900Z,17.69
2023-03-17T13:06:59.255Z,17.59
2023-03-17T13:09:31.984Z,17.65
2023-03-17T13:12:02.504Z,17.68
2023-03-17T13:14:45.764Z,17.85
2023-03-17T13:17:19.687Z,17.61
2023-03-17T13:20:04.395Z,17.44
2023-03-17T13:22:37.123Z,17.43
2023-03-17T13:25:29.841Z,17.50
2023-03-17T13:28:12.071Z,17.49
2023-03-17T13:30:38.606Z,17.36
2023-03-17T13:33:11.232Z,17.65
2023-03-17T13:35:46.746Z,17.51
2023-03-17T13:38:28.334Z,17.60
2023-03-17T13:41:07.153Z,17.68
2023-03-17T13:44:12.180Z,17.50
2023-03-17T13:46:41.966Z,17.38
2023-03-17T13:49:26.793Z,17.37
2023-03-17T13:51:59.814Z,17.66
2023-03-17T13:54:26.863Z,17.63
2023-03-17T13:56:55.061Z,17.75
2023-03-17T13:59:33.427Z,17.92
2023-03-17T14:02:04.516Z,17.83
2023-03-17T14:04:46.359Z,17.70
2023-03-17T14:07:19.055Z,17.52
2023-03-17T14:09:48.494Z,17.46
2023-03-17T14:12:27.298Z,17.75
2023-03-17T14:15:08.652Z,17.65
2023-03-17T14:17:43.674Z,17.66
2023-03-17T14:20:13.066Z,17.74
2023-03-17T14:22:46.266Z,17.79
2023-03-17T14:25:26.133Z,17.62
2023-03-17T14:27:57.525Z,17.42
2023-03-17T14:30:30.463Z,17.30
2023-03-17T14:32:59.811Z,17.25
2023-03-17T14:35:30.631Z,17.35
2023-03-17T14:37:57.174Z,17.09
2023-03-17T14:40:26.402Z,17.12
2023-03-17T14:42:52.868Z,16.99
2023-03-17T14:45:49.570Z,16.93
2023-03-17T14:48:22.666Z,17.04
2023-03-17T14:50:59.781Z,16.96
2023-03-17T14:53:29.562Z,16.87
2023-03-17T14:55:56.308Z,16.84
2023-03-17T14:58:44.247Z,16.98
2023-03-17T15:01:38.730Z,16.77
2023-03-17T15:04:13.665Z,16.75
2023-03-17T15:07:01.406Z,16.70
2023-03-17T15:09:33.663Z,16.62
2023-03-17T15:12:18.524Z,16.66
2023-03-17T15:14:46.845Z,16.70
2023-03-17T15:17:17.909Z,16.73
2023-03-17T15:19:47.779Z,16.81
2023-03-17T15:22:32.849Z,16.77
2023-03-17T15:25:00.961Z,16.89
2023-03-17T15:27:29.601Z,16.74
2023-03-17T15:29:56.479Z,16.74
2023-03-17T15:32:25.340Z,16.64
2023-03-17T15:34:55.490Z,16.74
2023-03-17T15:37:24.695Z,16.66
2023-03-17T15:39:53.064Z,16.73
2023-03-17T15:42:22.212Z,16.87
2023-03-17T15:44:48.708Z,16.80
2023-03-17T15:47:17.625Z,16.66
2023-03-17T15:49:45.499Z,16.58
2023-03-17T15:52:21.594Z,16.65
2023-03-17T15:54:48.751Z,16.55
2023-03-17T15:57:15.252Z,16.63
2023-03-17T15:59:44.351Z,16.53
2023-03-17T16:02:27.548Z,16.42
2023-03-17T16:04:55.543Z,16.61
2023-03-17T16:07:22.368Z,16.42
2023-03-17T16:09:48.751Z,16.22
2023-03-17T16:12:15.912Z,16.45
2023-03-17T16:14:48.068Z,16.32
2023-03-17T16:17:26.738Z,16.38
2023-03-17T16:19:53.332Z,16.23
2023-03-17T16:22:42.005Z,16.28
2023-03-17T16:25:25.331Z,16.04
2023-03-17T16:27:53.787Z,15.97
2023-03-17T16:30:30.525Z,15.85
2023-03-17T16:33:03.854Z,15.52
2023-03-17T16:35:30.595Z,15.27
2023-03-17T16:37:56.966Z,15.17
2023-03-17T16:40:27.773Z,15.07
2023-03-17T16:42:54.643Z,15.08
2023-03-17T16:45:26.448Z,15.15
2023-03-17T16:47:53.960Z,15.25
2023-03-17T16:50:23.043Z,15.34
2023-03-17T16:52:49.701Z,15.34
2023-03-17T16:55:17.985Z,14.97
2023-03-17T16:57:49.269Z,14.98
2023-03-17T17:00:21.666Z,14.47
2023-03-17T17:02:50.731Z,14.59
2023-03-17T17:05:20.485Z,14.59
2023-03-17T17:07:48.065Z,14.67
2023-03-17T17:10:17.044Z,14.49
2023-03-17T17:12:43.584Z,14.36
2023-03-17T17:15:12.483Z,14.48
2023-03-17T17:17:41.694Z,14.40
2023-03-17T17:20:20.218Z,14.24
2023-03-17T17:22:46.687Z,14.05
2023-03-17T17:25:13.122Z,14.03
2023-03-17T17:27:41.880Z,13.92
2023-03-17T17:30:11.191Z,13.94
2023-03-17T17:32:40.101Z,13.91
2023-03-17T17:35:07.600Z,13.71
2023-03-17T17:37:34.944Z,13.63
2023-03-17T17:40:01.680Z,13.59
2023-03-17T17:42:28.246Z,13.46
2023-03-17T17:44:54.643Z,13.41
2023-03-17T17:47:21.190Z,13.53
2023-03-17T17:49:47.683Z,13.41
2023-03-17T17:52:14.096Z,13.41
2023-03-17T17:54:40.460Z,13.63
2023-03-17T17:57:07.032Z,13.56
2023-03-17T17:59:36.027Z,13.42
2023-03-17T18:02:03.314Z,13.24
2023-03-17T18:04:29.999Z,13.28
2023-03-17T18:06:58.833Z,13.28
2023-03-17T18:09:27.667Z,13.04
2023-03-17T18:11:56.805Z,13.11
2023-03-17T18:14:23.271Z,13.00
2023-03-17T18:16:52.212Z,12.76
2023-03-17T18:19:18.827Z,13.57
2023-03-17T18:21:46.957Z,13.64
2023-03-17T18:24:14.541Z,13.75
2023-03-17T18:26:41.598Z,12.72
2023-03-17T18:29:09.133Z,12.61
2023-03-17T18:31:46.591Z,12.49
2023-03-17T18:34:20.124Z,12.32
2023-03-17T18:36:48.068Z,12.66
2023-03-17T18:39:18.204Z,12.63
2023-03-17T18:41:44.716Z,12.62
2023-03-17T18:44:13.802Z,12.64
2023-03-17T18:46:40.365Z,12.63
2023-03-17T18:49:09.260Z,12.40
2023-03-17T18:51:35.727Z,12.37
2023-03-17T18:54:02.985Z,12.55
2023-03-17T18:56:34.169Z,12.67
2023-03-17T18:59:01.169Z,12.40
2023-03-17T19:01:30.196Z,12.24
2023-03-17T19:03:59.053Z,12.44
2023-03-17T19:06:27.639Z,12.20
2023-03-17T19:08:54.145Z,12.07
2023-03-17T19:11:21.673Z,12.19
2023-03-17T19:13:49.024Z,12.22
2023-03-17T19:16:16.575Z,12.16
2023-03-17T19:18:43.019Z,12.09
2023-03-17T19:21:13.284Z,12.12
2023-03-17T19:23:41.260Z,12.13
2023-03-17T19:26:08.649Z,12.20
2023-03-17T19:28:35.202Z,12.09
2023-03-17T19:31:01.742Z,12.00
2023-03-17T19:33:28.896Z,12.01
2023-03-17T19:35:58.479Z,12.01
2023-03-17T19:38:46.786Z,11.97
2023-03-17T19:41:15.466Z,12.09
2023-03-17T19:43:42.205Z,11.95
2023-03-17T19:46:11.158Z,11.88
2023-03-17T19:48:38.044Z,11.81
2023-03-17T19:51:04.737Z,11.69
2023-03-17T19:53:33.627Z,11.77
2023-03-17T19:56:04.267Z,11.75
2023-03-17T19:58:30.703Z,11.84
2023-03-17T20:00:59.486Z,11.69
2023-03-17T20:03:26.483Z,11.38
2023-03-17T20:05:55.775Z,11.34
2023-03-17T20:08:24.892Z,11.41
2023-03-17T20:10:54.357Z,11.43
2023-03-17T20:13:21.879Z,11.48
2023-03-17T20:15:50.134Z,11.54
2023-03-17T20:18:18.860Z,11.36
2023-03-17T20:20:49.614Z,11.45
2023-03-17T20:23:21.632Z,11.51
2023-03-17T20:25:49.456Z,11.65
2023-03-17T20:28:19.915Z,11.54
2023-03-17T20:30:47.057Z,11.57
2023-03-17T20:33:14.109Z,11.56
2023-03-17T20:35:46.062Z,11.60
2023-03-17T20:38:13.483Z,11.27
2023-03-17T20:40:42.432Z,11.31
2023-03-17T20:43:09.402Z,11.06
2023-03-17T20:45:36.892Z,11.09
2023-03-17T20:48:04.995Z,11.13
2023-03-17T20:50:35.279Z,11.37
2023-03-17T20:53:02.641Z,11.41
2023-03-17T20:55:31.807Z,11.10
2023-03-17T20:58:01.786Z,11.17
2023-03-17T21:00:30.235Z,11.29
2023-03-17T21:02:57.122Z,11.24
2023-03-17T21:05:25.973Z,11.10
2023-03-17T21:07:52.751Z,11.06
2023-03-17T21:10:24.190Z,10.99
2023-03-17T21:12:50.595Z,10.91
2023-03-17T21:15:19.788Z,10.97
2023-03-17T21:17:46.132Z,11.05
2023-03-17T21:20:16.198Z,10.94
2023-03-17T21:22:43.044Z,11.05
2023-03-17T21:25:11.590Z,11.13
2023-03-17T21:27:39.286Z,10.95
2023-03-17T21:30:08.111Z,10.81
2023-03-17T21:32:34.653Z,10.81
2023-03-17T21:35:04.295Z,10.79
2023-03-17T21:37:31.060Z,10.86
2023-03-17T21:40:02.477Z,10.65
2023-03-17T21:42:29.100Z,10.70
2023-03-17T21:44:55.645Z,10.72
2023-03-17T21:47:22.126Z,10.75
2023-03-17T21:49:49.040Z,10.76
2023-03-17T21:52:20.775Z,10.77
2023-03-17T21:54:50.380Z,10.73
2023-03-17T21:57:17.902Z,10.78
2023-03-17T21:59:45.550Z,10.86
2023-03-17T22:02:12.648Z,10.76
2023-03-17T22:04:39.650Z,10.88
2023-03-17T22:07:08.504Z,10.91
2023-03-17T22:09:35.117Z,10.93
2023-03-17T22:12:06.987Z,10.85
2023-03-17T22:14:35.321Z,10.97
2023-03-17T22:17:05.181Z,10.98
2023-03-17T22:19:34.306Z,11.00
2023-03-17T22:22:01.960Z,11.06
2023-03-17T22:24:32.360Z,11.05
2023-03-17T22:26:59.238Z,10.87
2023-03-17T22:29:26.564Z,10.97
2023-03-17T22:31:53.146Z,11.13
2023-03-17T22:34:20.129Z,11.09
2023-03-17T22:36:49.151Z,11.26
2023-03-17T22:39:15.634Z,11.12
2023-03-17T22:41:42.234Z,11.12
2023-03-17T22:44:09.799Z,11.09
2023-03-17T22:46:37.773Z,10.92
2023-03-17T22:49:05.399Z,10.85
2023-03-17T22:51:31.822Z,10.82
2023-03-17T22:54:00.884Z,10.90
2023-03-17T22:56:27.636Z,10.91
2023-03-17T22:58:54.844Z,10.87
2023-03-17T23:01:23.787Z,10.56
2023-03-17T23:03:50.489Z,10.50
2023-03-17T23:06:17.773Z,10.58
2023-03-17T23:08:45.685Z,10.52
2023-03-17T23:11:17.241Z,10.64
2023-03-17T23:13:45.264Z,10.70
2023-03-17T23:16:12.591Z,10.68
2023-03-17T23:18:39.213Z,10.77
2023-03-17T23:21:06.903Z,10.67
2023-03-17T23:23:36.534Z,10.71
2023-03-17T23:26:03.282Z,10.92
2023-03-17T23:28:32.210Z,11.00
2023-03-17T23:30:58.772Z,10.89
2023-03-17T23:33:28.267Z,10.83
2023-03-17T23:35:55.878Z,10.85
2023-03-17T23:38:22.370Z,10.86
2023-03-17T23:40:49.431Z,10.91
2023-03-17T23:43:16.158Z,10.85
2023-03-17T23:45:42.823Z,10.77
2023-03-17T23:48:10.463Z,10.78
2023-03-17T23:50:38.674Z,10.82
2023-03-17T23:53:05.171Z,10.66
2023-03-17T23:55:31.694Z,10.82
2023-03-17T23:57:58.092Z,10.86
